<?xml version='1.0' encoding='UTF-8'?><gpx version="1.1" creator="JPX - https://github.com/jenetics/jpx" xmlns="http://www.topografix.com/GPX/1/1"><trk><trkseg><trkpt lat="43.279964678372764" lon="10.780548058968868"><ele>355.99999999999994</ele><time>2026-03-26T14:43:12Z</time></trkpt><trkpt lat="43.279900505648435" lon="10.78055036605226"><ele>356.0</ele><time>2026-03-26T14:43:17Z</time></trkpt><trkpt lat="43.27990995511669" lon="10.780641419541904"><ele>356.0</ele><time>2026-03-26T14:43:22Z</time></trkpt><trkpt lat="43.279904504490155" lon="10.780731573408207"><ele>356.0</ele><time>2026-03-26T14:43:29Z</time></trkpt><trkpt lat="43.27989360253809" lon="10.780821317906845"><ele>356.0</ele><time>2026-03-26T14:43:34.999Z</time></trkpt><trkpt lat="43.279856107560065" lon="10.780901775426786"><ele>355.99999999999994</ele><time>2026-03-26T14:43:40.999Z</time></trkpt><trkpt lat="43.27979917884161" lon="10.780976811021844"><ele>356.0</ele><time>2026-03-26T14:43:46.999Z</time></trkpt><trkpt lat="43.279724718683546" lon="10.781002004612128"><ele>355.99999999999994</ele><time>2026-03-26T14:43:51.999Z</time></trkpt><trkpt lat="43.27965318490996" lon="10.781004118763448"><ele>356.0</ele><time>2026-03-26T14:43:57.999Z</time></trkpt><trkpt lat="43.27960495282451" lon="10.78094362680898"><ele>356.0</ele><time>2026-03-26T14:44:02.999Z</time></trkpt><trkpt lat="43.27955298438328" lon="10.78087249645163"><ele>356.0</ele><time>2026-03-26T14:44:09.999Z</time></trkpt><trkpt lat="43.27948371731911" lon="10.780866141275641"><ele>356.0</ele><time>2026-03-26T14:44:15.999Z</time></trkpt><trkpt lat="43.279413088178046" lon="10.780884153175755"><ele>355.99999999999994</ele><time>2026-03-26T14:44:21.999Z</time></trkpt><trkpt lat="43.27934697430736" lon="10.780902916755956"><ele>356.0</ele><time>2026-03-26T14:44:27.999Z</time></trkpt><trkpt lat="43.2792891545644" lon="10.780952983224367"><ele>354.4285714285714</ele><time>2026-03-26T14:44:33.999Z</time></trkpt><trkpt lat="43.27924345936327" lon="10.781023991247045"><ele>352.85714285714283</ele><time>2026-03-26T14:44:39.999Z</time></trkpt><trkpt lat="43.27923125193904" lon="10.781110590724564"><ele>351.2857142857143</ele><time>2026-03-26T14:44:44.999Z</time></trkpt><trkpt lat="43.27923036279974" lon="10.78121196316659"><ele>349.71428571428567</ele><time>2026-03-26T14:44:49.999Z</time></trkpt><trkpt lat="43.27922588744336" lon="10.781299146986113"><ele>348.1428571428571</ele><time>2026-03-26T14:44:54.998Z</time></trkpt><trkpt lat="43.27921504226042" lon="10.781397120220172"><ele>346.57142857142856</ele><time>2026-03-26T14:45:00Z</time></trkpt><trkpt lat="43.279223851434104" lon="10.781492965895287"><ele>345.0</ele><time>2026-03-26T14:45:05Z</time></trkpt><trkpt lat="43.27924821851851" lon="10.781594777245637"><ele>345.0</ele><time>2026-03-26T14:45:10Z</time></trkpt><trkpt lat="43.27928044555071" lon="10.78168129823205"><ele>345.0</ele><time>2026-03-26T14:45:15Z</time></trkpt><trkpt lat="43.279294021752484" lon="10.781775835331832"><ele>345.0</ele><time>2026-03-26T14:45:20Z</time></trkpt><trkpt lat="43.27925934886972" lon="10.781855668346715"><ele>345.0</ele><time>2026-03-26T14:45:26Z</time></trkpt><trkpt lat="43.27918523729489" lon="10.78183333377724"><ele>345.0</ele><time>2026-03-26T14:45:34Z</time></trkpt><trkpt lat="43.279147217050806" lon="10.781751896348885"><ele>345.0</ele><time>2026-03-26T14:45:40Z</time></trkpt><trkpt lat="43.27913520977666" lon="10.781655122714303"><ele>345.0</ele><time>2026-03-26T14:45:46Z</time></trkpt><trkpt lat="43.27910612771455" lon="10.781567577605662"><ele>345.0</ele><time>2026-03-26T14:45:52.999Z</time></trkpt><trkpt lat="43.27906566931501" lon="10.781489223036719"><ele>345.0</ele><time>2026-03-26T14:45:59.999Z</time></trkpt><trkpt lat="43.27901537555369" lon="10.7814272905756"><ele>345.0</ele><time>2026-03-26T14:46:04.999Z</time></trkpt><trkpt lat="43.278943917763094" lon="10.781407900667832"><ele>345.0</ele><time>2026-03-26T14:46:09.999Z</time></trkpt><trkpt lat="43.27887903118044" lon="10.781388897975374"><ele>345.0</ele><time>2026-03-26T14:46:13.999Z</time></trkpt><trkpt lat="43.2788003650267" lon="10.781387041802308"><ele>345.0</ele><time>2026-03-26T14:46:18.999Z</time></trkpt><trkpt lat="43.27873578892003" lon="10.781398777051809"><ele>345.0</ele><time>2026-03-26T14:46:25.999Z</time></trkpt><trkpt lat="43.278665704421925" lon="10.781351011208379"><ele>344.42857142857144</ele><time>2026-03-26T14:46:32.999Z</time></trkpt><trkpt lat="43.278586515374556" lon="10.781329695921219"><ele>343.85714285714283</ele><time>2026-03-26T14:46:38.999Z</time></trkpt><trkpt lat="43.2785278006793" lon="10.781288277877374"><ele>343.2857142857143</ele><time>2026-03-26T14:46:44.999Z</time></trkpt><trkpt lat="43.27847717779108" lon="10.781234127820822"><ele>342.7142857142857</ele><time>2026-03-26T14:46:48.999Z</time></trkpt><trkpt lat="43.27842988616319" lon="10.78116675192239"><ele>342.14285714285717</ele><time>2026-03-26T14:46:55.999Z</time></trkpt><trkpt lat="43.27836964959332" lon="10.781125441460667"><ele>341.57142857142856</ele><time>2026-03-26T14:47:08Z</time></trkpt><trkpt lat="43.278317924735745" lon="10.781033160239758"><ele>341.0</ele><time>2026-03-26T14:47:15Z</time></trkpt><trkpt lat="43.2782620906745" lon="10.780992397585223"><ele>341.0</ele><time>2026-03-26T14:47:19Z</time></trkpt><trkpt lat="43.27822009376554" lon="10.780924955817968"><ele>341.0</ele><time>2026-03-26T14:47:24Z</time></trkpt><trkpt lat="43.2781461577082" lon="10.780877923929728"><ele>341.0</ele><time>2026-03-26T14:47:33Z</time></trkpt><trkpt lat="43.27808278951563" lon="10.780897383714679"><ele>341.0</ele><time>2026-03-26T14:47:38Z</time></trkpt><trkpt lat="43.27805351380099" lon="10.780987970301593"><ele>341.0</ele><time>2026-03-26T14:47:44Z</time></trkpt><trkpt lat="43.27804686572686" lon="10.78107419623004"><ele>341.0</ele><time>2026-03-26T14:47:50Z</time></trkpt><trkpt lat="43.27802171119691" lon="10.78116775331427"><ele>341.0</ele><time>2026-03-26T14:47:56Z</time></trkpt><trkpt lat="43.27797998368525" lon="10.781256319146578"><ele>340.1428571428571</ele><time>2026-03-26T14:48:01.999Z</time></trkpt><trkpt lat="43.27792640062523" lon="10.781306693662952"><ele>339.2857142857143</ele><time>2026-03-26T14:48:11.999Z</time></trkpt><trkpt lat="43.277864914116456" lon="10.781327717691324"><ele>338.42857142857144</ele><time>2026-03-26T14:48:16.999Z</time></trkpt><trkpt lat="43.27780759998217" lon="10.781381523154439"><ele>337.57142857142856</ele><time>2026-03-26T14:48:23.999Z</time></trkpt><trkpt lat="43.27774290008368" lon="10.781371768202613"><ele>336.7142857142857</ele><time>2026-03-26T14:48:31.999Z</time></trkpt><trkpt lat="43.27767655527714" lon="10.78137636465935"><ele>335.85714285714283</ele><time>2026-03-26T14:48:38.999Z</time></trkpt><trkpt lat="43.277617040987394" lon="10.781413819041358"><ele>335.0</ele><time>2026-03-26T14:48:46.999Z</time></trkpt><trkpt lat="43.27756669383832" lon="10.781467960735824"><ele>334.99999999999994</ele><time>2026-03-26T14:48:51.999Z</time></trkpt><trkpt lat="43.277492984984576" lon="10.781477257722843"><ele>335.0</ele><time>2026-03-26T14:49:00.999Z</time></trkpt><trkpt lat="43.277419554439845" lon="10.781477741231383"><ele>335.0</ele><time>2026-03-26T14:49:06.999Z</time></trkpt><trkpt lat="43.277340617838924" lon="10.781470343844711"><ele>335.0</ele><time>2026-03-26T14:49:12Z</time></trkpt><trkpt lat="43.277272090566235" lon="10.781486046263954"><ele>335.0</ele><time>2026-03-26T14:49:17Z</time></trkpt><trkpt lat="43.27720361387307" lon="10.7814795357765"><ele>334.99999999999994</ele><time>2026-03-26T14:49:25Z</time></trkpt><trkpt lat="43.27713061390341" lon="10.781508816827893"><ele>335.0</ele><time>2026-03-26T14:49:30Z</time></trkpt><trkpt lat="43.277066870869156" lon="10.781561116606724"><ele>333.71428571428567</ele><time>2026-03-26T14:49:37Z</time></trkpt><trkpt lat="43.277000943381665" lon="10.781583038159376"><ele>332.42857142857144</ele><time>2026-03-26T14:49:43Z</time></trkpt><trkpt lat="43.276937922817" lon="10.78158890673821"><ele>331.1428571428571</ele><time>2026-03-26T14:49:49Z</time></trkpt><trkpt lat="43.276887773791806" lon="10.781534069334468"><ele>329.85714285714283</ele><time>2026-03-26T14:49:58Z</time></trkpt><trkpt lat="43.27686668271267" lon="10.781446842526195"><ele>328.57142857142856</ele><time>2026-03-26T14:50:04.999Z</time></trkpt><trkpt lat="43.27682031039336" lon="10.781371244458873"><ele>327.2857142857143</ele><time>2026-03-26T14:50:09.999Z</time></trkpt><trkpt lat="43.276775604092194" lon="10.781293229444096"><ele>326.0</ele><time>2026-03-26T14:50:15.999Z</time></trkpt><trkpt lat="43.27671525813711" lon="10.781242665803855"><ele>326.0</ele><time>2026-03-26T14:50:20.999Z</time></trkpt><trkpt lat="43.276653345447635" lon="10.781213610723805"><ele>326.0</ele><time>2026-03-26T14:50:41.999Z</time></trkpt><trkpt lat="43.27658109373485" lon="10.781185489688367"><ele>326.0</ele><time>2026-03-26T14:50:46.999Z</time></trkpt><trkpt lat="43.27652575371306" lon="10.781247632217672"><ele>326.0</ele><time>2026-03-26T14:50:53.999Z</time></trkpt><trkpt lat="43.276471405176586" lon="10.781300530346133"><ele>326.0</ele><time>2026-03-26T14:50:59.999Z</time></trkpt><trkpt lat="43.27641223909824" lon="10.781343363041406"><ele>326.0</ele><time>2026-03-26T14:51:05.999Z</time></trkpt><trkpt lat="43.2763426690782" lon="10.7813696787399"><ele>326.0</ele><time>2026-03-26T14:51:10.999Z</time></trkpt><trkpt lat="43.27627391455141" lon="10.781396559321637"><ele>323.2857142857143</ele><time>2026-03-26T14:51:17Z</time></trkpt><trkpt lat="43.27621295921055" lon="10.781422924703815"><ele>320.57142857142856</ele><time>2026-03-26T14:51:22Z</time></trkpt><trkpt lat="43.276142225109304" lon="10.781413097962238"><ele>317.85714285714283</ele><time>2026-03-26T14:51:28Z</time></trkpt><trkpt lat="43.27606997863568" lon="10.781417993185622"><ele>315.1428571428571</ele><time>2026-03-26T14:51:33Z</time></trkpt><trkpt lat="43.27600172413725" lon="10.781392426812094"><ele>312.42857142857144</ele><time>2026-03-26T14:51:39Z</time></trkpt><trkpt lat="43.27596494769614" lon="10.781321731214629"><ele>309.71428571428567</ele><time>2026-03-26T14:51:44Z</time></trkpt><trkpt lat="43.27591864967916" lon="10.7812436649755"><ele>307.0</ele><time>2026-03-26T14:51:50Z</time></trkpt><trkpt lat="43.27591189744371" lon="10.78115582679245"><ele>306.99999999999994</ele><time>2026-03-26T14:51:56Z</time></trkpt><trkpt lat="43.27586322961681" lon="10.781089787804596"><ele>307.0</ele><time>2026-03-26T14:52:02Z</time></trkpt><trkpt lat="43.27580122059733" lon="10.781111816680461"><ele>307.0</ele><time>2026-03-26T14:52:50.999Z</time></trkpt><trkpt lat="43.27572797901642" lon="10.781100622402736"><ele>307.0</ele><time>2026-03-26T14:52:58.999Z</time></trkpt><trkpt lat="43.27575560711788" lon="10.781016397722777"><ele>307.0</ele><time>2026-03-26T14:53:03.999Z</time></trkpt><trkpt lat="43.27571230948838" lon="10.780952035881919"><ele>306.99999999999994</ele><time>2026-03-26T14:53:09.999Z</time></trkpt><trkpt lat="43.27566491339511" lon="10.780884269255344"><ele>307.0</ele><time>2026-03-26T14:53:15.998Z</time></trkpt><trkpt lat="43.27560917980315" lon="10.780821770089245"><ele>304.99999999999994</ele><time>2026-03-26T14:53:22Z</time></trkpt><trkpt lat="43.27557454408263" lon="10.78073129359222"><ele>303.0</ele><time>2026-03-26T14:53:28Z</time></trkpt><trkpt lat="43.275545440848845" lon="10.780640391723722"><ele>301.0</ele><time>2026-03-26T14:53:34Z</time></trkpt><trkpt lat="43.275537851514855" lon="10.780552806679825"><ele>299.0</ele><time>2026-03-26T14:53:41Z</time></trkpt><trkpt lat="43.275467335152655" lon="10.780556843428139"><ele>297.0</ele><time>2026-03-26T14:53:46Z</time></trkpt><trkpt lat="43.27540313547126" lon="10.780565632189932"><ele>294.99999999999994</ele><time>2026-03-26T14:53:51Z</time></trkpt><trkpt lat="43.27538067309835" lon="10.780462213990534"><ele>293.0</ele><time>2026-03-26T14:54:01Z</time></trkpt><trkpt lat="43.2754127468259" lon="10.780379034723238"><ele>292.99999999999994</ele><time>2026-03-26T14:54:38.999Z</time></trkpt><trkpt lat="43.27539165462513" lon="10.780272198924667"><ele>293.0</ele><time>2026-03-26T14:54:43.999Z</time></trkpt><trkpt lat="43.2753840277235" lon="10.780185552479296"><ele>293.0</ele><time>2026-03-26T14:54:49.999Z</time></trkpt><trkpt lat="43.2754246844744" lon="10.780110127650506"><ele>293.0</ele><time>2026-03-26T14:54:55.999Z</time></trkpt><trkpt lat="43.275487562560635" lon="10.780082050690162"><ele>293.0</ele><time>2026-03-26T14:55:00.999Z</time></trkpt><trkpt lat="43.275532334125984" lon="10.78001729846868"><ele>292.99999999999994</ele><time>2026-03-26T14:55:05.999Z</time></trkpt><trkpt lat="43.27551812037698" lon="10.779932590640417"><ele>293.0</ele><time>2026-03-26T14:55:11.999Z</time></trkpt><trkpt lat="43.27548081077974" lon="10.779858394443078"><ele>295.1428571428571</ele><time>2026-03-26T14:55:16.998Z</time></trkpt><trkpt lat="43.27541481451319" lon="10.77985152254312"><ele>297.2857142857143</ele><time>2026-03-26T14:55:20.998Z</time></trkpt><trkpt lat="43.275350233876665" lon="10.779869437704338"><ele>299.42857142857144</ele><time>2026-03-26T14:55:27Z</time></trkpt><trkpt lat="43.275281547882344" lon="10.779835920764238"><ele>301.57142857142856</ele><time>2026-03-26T14:55:34Z</time></trkpt><trkpt lat="43.275237877355075" lon="10.779771240563594"><ele>303.7142857142857</ele><time>2026-03-26T14:55:42Z</time></trkpt><trkpt lat="43.27518203348909" lon="10.77972662095888"><ele>305.85714285714283</ele><time>2026-03-26T14:55:47Z</time></trkpt><trkpt lat="43.27513540068394" lon="10.779652520035084"><ele>308.0</ele><time>2026-03-26T14:55:57Z</time></trkpt><trkpt lat="43.27509927311942" lon="10.779572649108717"><ele>308.0</ele><time>2026-03-26T14:56:05Z</time></trkpt><trkpt lat="43.275083998817216" lon="10.779485304907782"><ele>308.0</ele><time>2026-03-26T14:56:14Z</time></trkpt><trkpt lat="43.27504120524993" lon="10.77940931952486"><ele>308.0</ele><time>2026-03-26T14:56:21.999Z</time></trkpt><trkpt lat="43.27497420369758" lon="10.779406448013535"><ele>308.0</ele><time>2026-03-26T14:56:28.999Z</time></trkpt><trkpt lat="43.27491590612905" lon="10.779450691145378"><ele>308.0</ele><time>2026-03-26T14:56:36.999Z</time></trkpt><trkpt lat="43.27485572062262" lon="10.77948730014631"><ele>308.0</ele><time>2026-03-26T14:56:43.999Z</time></trkpt><trkpt lat="43.27478573701607" lon="10.77950983060174"><ele>308.0</ele><time>2026-03-26T14:56:50.999Z</time></trkpt><trkpt lat="43.274716098409655" lon="10.7795183466699"><ele>309.0</ele><time>2026-03-26T14:56:57.999Z</time></trkpt><trkpt lat="43.27465263645754" lon="10.779549734526785"><ele>310.0</ele><time>2026-03-26T14:57:03.999Z</time></trkpt><trkpt lat="43.27457950242714" lon="10.779585029925375"><ele>311.0</ele><time>2026-03-26T14:57:10.999Z</time></trkpt><trkpt lat="43.2745111884814" lon="10.779610628193643"><ele>312.0</ele><time>2026-03-26T14:57:16.998Z</time></trkpt><trkpt lat="43.27445040421698" lon="10.779633376227586"><ele>313.0</ele><time>2026-03-26T14:57:22.998Z</time></trkpt><trkpt lat="43.27438399283008" lon="10.779628097418273"><ele>314.0</ele><time>2026-03-26T14:57:57Z</time></trkpt><trkpt lat="43.274318565253566" lon="10.779682905966101"><ele>315.0</ele><time>2026-03-26T14:58:00Z</time></trkpt><trkpt lat="43.27425175459146" lon="10.779725276133487"><ele>315.0</ele><time>2026-03-26T14:58:06Z</time></trkpt><trkpt lat="43.27418855997053" lon="10.779729654447433"><ele>315.0</ele><time>2026-03-26T14:58:10Z</time></trkpt><trkpt lat="43.27412317930324" lon="10.779750988141858"><ele>315.0</ele><time>2026-03-26T14:58:15Z</time></trkpt><trkpt lat="43.27406654817267" lon="10.779816678072756"><ele>315.0</ele><time>2026-03-26T14:58:26.999Z</time></trkpt><trkpt lat="43.27400437681778" lon="10.77983766839686"><ele>315.0</ele><time>2026-03-26T14:58:31.999Z</time></trkpt><trkpt lat="43.27395878837587" lon="10.779911851939714"><ele>315.0</ele><time>2026-03-26T14:58:35.999Z</time></trkpt><trkpt lat="43.273895518097724" lon="10.77995736308712"><ele>315.0</ele><time>2026-03-26T14:58:40.999Z</time></trkpt><trkpt lat="43.2738239589028" lon="10.779929217781152"><ele>314.0</ele><time>2026-03-26T14:58:45.999Z</time></trkpt><trkpt lat="43.273754119745035" lon="10.779946765784823"><ele>313.0</ele><time>2026-03-26T14:58:50.999Z</time></trkpt><trkpt lat="43.27371222551932" lon="10.77986957473879"><ele>312.0</ele><time>2026-03-26T14:59:42Z</time></trkpt><trkpt lat="43.273719511749995" lon="10.779775024905469"><ele>311.0</ele><time>2026-03-26T14:59:52Z</time></trkpt><trkpt lat="43.27372421613126" lon="10.77968489303451"><ele>310.0</ele><time>2026-03-26T15:00:06Z</time></trkpt><trkpt lat="43.27378032023215" lon="10.779643590907108"><ele>309.0</ele><time>2026-03-26T15:00:19Z</time></trkpt><trkpt lat="43.27384114591456" lon="10.779597005309657"><ele>308.0</ele><time>2026-03-26T15:00:30.999Z</time></trkpt><trkpt lat="43.273899712245864" lon="10.779558404570517"><ele>309.0</ele><time>2026-03-26T15:00:42.999Z</time></trkpt><trkpt lat="43.27395757034235" lon="10.77951883838479"><ele>310.0</ele><time>2026-03-26T15:03:54Z</time></trkpt><trkpt lat="43.27399723655442" lon="10.779451170151733"><ele>311.0</ele><time>2026-03-26T15:04:04Z</time></trkpt><trkpt lat="43.27403723166862" lon="10.779367873872623"><ele>312.0</ele><time>2026-03-26T15:04:12Z</time></trkpt><trkpt lat="43.27406911054052" lon="10.77929130789689"><ele>313.0</ele><time>2026-03-26T15:04:19Z</time></trkpt><trkpt lat="43.27409609678513" lon="10.779208456205502"><ele>314.0</ele><time>2026-03-26T15:04:32.999Z</time></trkpt><trkpt lat="43.274136004633085" lon="10.779127422561912"><ele>315.0</ele><time>2026-03-26T15:04:44.999Z</time></trkpt><trkpt lat="43.27418969364084" lon="10.779070655572859"><ele>318.0</ele><time>2026-03-26T15:04:55.999Z</time></trkpt><trkpt lat="43.274242416601886" lon="10.77901811285483"><ele>321.0</ele><time>2026-03-26T15:05:05.999Z</time></trkpt><trkpt lat="43.27428108062364" lon="10.778945556155918"><ele>324.0</ele><time>2026-03-26T15:05:18.999Z</time></trkpt><trkpt lat="43.27432312698511" lon="10.77887325872812"><ele>327.0</ele><time>2026-03-26T15:05:28.999Z</time></trkpt><trkpt lat="43.274359801246355" lon="10.77879546725245"><ele>330.0</ele><time>2026-03-26T15:05:39.998Z</time></trkpt><trkpt lat="43.27439178986626" lon="10.778716408672363"><ele>333.0</ele><time>2026-03-26T15:05:50.998Z</time></trkpt><trkpt lat="43.274432615918656" lon="10.778641608592018"><ele>336.0</ele><time>2026-03-26T15:06:03Z</time></trkpt><trkpt lat="43.274475818732554" lon="10.778567117392829"><ele>338.0</ele><time>2026-03-26T15:06:12Z</time></trkpt><trkpt lat="43.274520848991465" lon="10.778491063577354"><ele>340.0</ele><time>2026-03-26T15:06:21Z</time></trkpt><trkpt lat="43.27456738987892" lon="10.778408095327144"><ele>342.0</ele><time>2026-03-26T15:06:33Z</time></trkpt><trkpt lat="43.27460158349569" lon="10.778324223690884"><ele>344.0</ele><time>2026-03-26T15:06:42.999Z</time></trkpt><trkpt lat="43.274622436832594" lon="10.778237498991146"><ele>346.0</ele><time>2026-03-26T15:06:50.999Z</time></trkpt><trkpt lat="43.274639217704184" lon="10.778144301991604"><ele>348.0</ele><time>2026-03-26T15:06:57.999Z</time></trkpt><trkpt lat="43.274678028201926" lon="10.778065349090566"><ele>350.0</ele><time>2026-03-26T15:07:06.999Z</time></trkpt><trkpt lat="43.27473770563186" lon="10.778023729493698"><ele>351.57142857142856</ele><time>2026-03-26T15:07:15.999Z</time></trkpt><trkpt lat="43.274783998031765" lon="10.777962333945993"><ele>353.1428571428571</ele><time>2026-03-26T15:07:26.999Z</time></trkpt><trkpt lat="43.27482974098757" lon="10.77789477184337"><ele>354.7142857142857</ele><time>2026-03-26T15:07:36.998Z</time></trkpt><trkpt lat="43.27487194564078" lon="10.777826891381402"><ele>356.2857142857143</ele><time>2026-03-26T15:07:46.998Z</time></trkpt><trkpt lat="43.27489610997376" lon="10.777741517872519"><ele>357.85714285714283</ele><time>2026-03-26T15:07:57.998Z</time></trkpt><trkpt lat="43.274919877562304" lon="10.777653315222679"><ele>359.42857142857144</ele><time>2026-03-26T15:08:12Z</time></trkpt><trkpt lat="43.27491806661842" lon="10.77756633720583"><ele>361.0</ele><time>2026-03-26T15:08:23Z</time></trkpt><trkpt lat="43.27489125851646" lon="10.777474540477442"><ele>364.14285714285717</ele><time>2026-03-26T15:08:33Z</time></trkpt><trkpt lat="43.27484939865543" lon="10.777399332856657"><ele>367.2857142857143</ele><time>2026-03-26T15:09:00.999Z</time></trkpt><trkpt lat="43.27485619335897" lon="10.7773093602499"><ele>370.42857142857144</ele><time>2026-03-26T15:09:09.999Z</time></trkpt><trkpt lat="43.27486134540378" lon="10.777213607808259"><ele>373.57142857142856</ele><time>2026-03-26T15:09:40.999Z</time></trkpt><trkpt lat="43.274876908425696" lon="10.777108439613981"><ele>376.71428571428567</ele><time>2026-03-26T15:10:11Z</time></trkpt><trkpt lat="43.274916411636795" lon="10.777026513064373"><ele>379.85714285714283</ele><time>2026-03-26T15:10:24Z</time></trkpt><trkpt lat="43.27498898900514" lon="10.777001369999764"><ele>383.0</ele><time>2026-03-26T15:10:38Z</time></trkpt><trkpt lat="43.27504892450136" lon="10.776964975359979"><ele>383.0</ele><time>2026-03-26T15:11:17.999Z</time></trkpt><trkpt lat="43.275111684894604" lon="10.776957786491396"><ele>383.0</ele><time>2026-03-26T15:11:24.999Z</time></trkpt><trkpt lat="43.27517343261296" lon="10.776916335531572"><ele>383.0</ele><time>2026-03-26T15:11:32.999Z</time></trkpt><trkpt lat="43.2752332766032" lon="10.776873709177877"><ele>383.0</ele><time>2026-03-26T15:11:53.998Z</time></trkpt><trkpt lat="43.27530006179157" lon="10.776861212666233"><ele>383.0</ele><time>2026-03-26T15:12:02.998Z</time></trkpt><trkpt lat="43.27537065407174" lon="10.77686506127913"><ele>383.0</ele><time>2026-03-26T15:12:17Z</time></trkpt><trkpt lat="43.27544085934661" lon="10.776852349956531"><ele>383.0</ele><time>2026-03-26T15:12:26Z</time></trkpt><trkpt lat="43.27549282497868" lon="10.776795954702754"><ele>385.1428571428571</ele><time>2026-03-26T15:12:35Z</time></trkpt><trkpt lat="43.27554699350412" lon="10.776729710281082"><ele>387.2857142857143</ele><time>2026-03-26T15:12:58.999Z</time></trkpt><trkpt lat="43.27556491117166" lon="10.776640920357217"><ele>389.42857142857144</ele><time>2026-03-26T15:13:07.999Z</time></trkpt><trkpt lat="43.275575409844805" lon="10.776555507700289"><ele>391.57142857142856</ele><time>2026-03-26T15:13:16.999Z</time></trkpt><trkpt lat="43.27557404376032" lon="10.77645830046148"><ele>393.7142857142857</ele><time>2026-03-26T15:13:25.999Z</time></trkpt><trkpt lat="43.27559838616116" lon="10.776371922961241"><ele>395.85714285714283</ele><time>2026-03-26T15:13:33.999Z</time></trkpt><trkpt lat="43.27560506815797" lon="10.776279874436435"><ele>398.0</ele><time>2026-03-26T15:13:41.999Z</time></trkpt><trkpt lat="43.27559063600995" lon="10.776190223480294"><ele>397.99999999999994</ele><time>2026-03-26T15:13:47.999Z</time></trkpt><trkpt lat="43.2755645130182" lon="10.776094222404067"><ele>398.0</ele><time>2026-03-26T15:13:54.998Z</time></trkpt><trkpt lat="43.27555363361824" lon="10.776001831099949"><ele>398.0</ele><time>2026-03-26T15:14:00.998Z</time></trkpt><trkpt lat="43.27556248462461" lon="10.775906432089316"><ele>398.0</ele><time>2026-03-26T15:14:07.998Z</time></trkpt><trkpt lat="43.275550989246284" lon="10.77581191004108"><ele>398.0</ele><time>2026-03-26T15:14:13.998Z</time></trkpt><trkpt lat="43.275561178117144" lon="10.775718568187395"><ele>397.99999999999994</ele><time>2026-03-26T15:14:18.998Z</time></trkpt><trkpt lat="43.275586752308975" lon="10.775618501871195"><ele>398.0</ele><time>2026-03-26T15:14:25Z</time></trkpt><trkpt lat="43.27563098469827" lon="10.775547710159788"><ele>401.4285714285714</ele><time>2026-03-26T15:14:31Z</time></trkpt><trkpt lat="43.2756664910128" lon="10.775466235140891"><ele>404.85714285714283</ele><time>2026-03-26T15:14:36Z</time></trkpt><trkpt lat="43.27571036694776" lon="10.77539372123957"><ele>408.2857142857143</ele><time>2026-03-26T15:14:42Z</time></trkpt><trkpt lat="43.27576314968623" lon="10.775327512181423"><ele>411.71428571428567</ele><time>2026-03-26T15:14:48Z</time></trkpt><trkpt lat="43.27577056302795" lon="10.775231674614819"><ele>415.14285714285717</ele><time>2026-03-26T15:14:54Z</time></trkpt><trkpt lat="43.275779520693156" lon="10.775141782240887"><ele>418.57142857142856</ele><time>2026-03-26T15:14:59Z</time></trkpt><trkpt lat="43.27578726941532" lon="10.775041504937363"><ele>422.0</ele><time>2026-03-26T15:15:04.999Z</time></trkpt><trkpt lat="43.27577613311283" lon="10.774942887339616"><ele>422.0</ele><time>2026-03-26T15:15:11.999Z</time></trkpt><trkpt lat="43.27576178615389" lon="10.77485079480755"><ele>422.0</ele><time>2026-03-26T15:15:16.999Z</time></trkpt><trkpt lat="43.27573934961319" lon="10.77476393707645"><ele>422.0</ele><time>2026-03-26T15:15:24.999Z</time></trkpt><trkpt lat="43.275700247019095" lon="10.774674688227089"><ele>422.0</ele><time>2026-03-26T15:15:30.999Z</time></trkpt><trkpt lat="43.27566331751145" lon="10.774584727024584"><ele>422.0</ele><time>2026-03-26T15:15:35.999Z</time></trkpt><trkpt lat="43.27562511847504" lon="10.774512901711406"><ele>422.0</ele><time>2026-03-26T15:15:47.999Z</time></trkpt><trkpt lat="43.275566002323295" lon="10.774471965664326"><ele>422.0</ele><time>2026-03-26T15:15:52.999Z</time></trkpt><trkpt lat="43.27551803965624" lon="10.77440907267584"><ele>419.7142857142857</ele><time>2026-03-26T15:15:58.999Z</time></trkpt><trkpt lat="43.275469501718064" lon="10.774339907686372"><ele>417.42857142857144</ele><time>2026-03-26T15:16:04.998Z</time></trkpt><trkpt lat="43.27542620585373" lon="10.7742758182406"><ele>415.1428571428571</ele><time>2026-03-26T15:16:09.998Z</time></trkpt><trkpt lat="43.27538435859574" lon="10.774202820243712"><ele>412.8571428571429</ele><time>2026-03-26T15:16:14.998Z</time></trkpt><trkpt lat="43.27533498960361" lon="10.774147179402704"><ele>410.57142857142856</ele><time>2026-03-26T15:16:19.998Z</time></trkpt><trkpt lat="43.27527233958638" lon="10.77412440916886"><ele>408.2857142857143</ele><time>2026-03-26T15:16:23.998Z</time></trkpt><trkpt lat="43.275207622465516" lon="10.774118605840961"><ele>406.0</ele><time>2026-03-26T15:16:29Z</time></trkpt><trkpt lat="43.275143527697544" lon="10.774085205047674"><ele>406.0</ele><time>2026-03-26T15:16:36Z</time></trkpt><trkpt lat="43.27508225486008" lon="10.774056471513237"><ele>406.0</ele><time>2026-03-26T15:16:41Z</time></trkpt><trkpt lat="43.275019127055344" lon="10.774028284729933"><ele>406.0</ele><time>2026-03-26T15:16:47Z</time></trkpt><trkpt lat="43.274954749633764" lon="10.774063577253283"><ele>406.0</ele><time>2026-03-26T15:16:52Z</time></trkpt><trkpt lat="43.27491380226469" lon="10.774144838447526"><ele>406.0</ele><time>2026-03-26T15:16:58Z</time></trkpt><trkpt lat="43.274901123866215" lon="10.774236901639675"><ele>406.0</ele><time>2026-03-26T15:17:03Z</time></trkpt><trkpt lat="43.27482619251005" lon="10.774248157877267"><ele>406.0</ele><time>2026-03-26T15:17:08.999Z</time></trkpt><trkpt lat="43.27475348920045" lon="10.77423653014936"><ele>405.0</ele><time>2026-03-26T15:17:13.999Z</time></trkpt><trkpt lat="43.27468914130691" lon="10.774213943265947"><ele>404.0</ele><time>2026-03-26T15:17:19.999Z</time></trkpt><trkpt lat="43.27462922783031" lon="10.774186439532288"><ele>403.0</ele><time>2026-03-26T15:17:25.999Z</time></trkpt><trkpt lat="43.27456050193179" lon="10.774248007191261"><ele>402.0</ele><time>2026-03-26T15:17:43.999Z</time></trkpt><trkpt lat="43.27449596412464" lon="10.77420748061186"><ele>401.0</ele><time>2026-03-26T15:17:50.999Z</time></trkpt><trkpt lat="43.27442516760236" lon="10.774191515398744"><ele>400.0</ele><time>2026-03-26T15:17:55.999Z</time></trkpt><trkpt lat="43.27435357526603" lon="10.774189857963863"><ele>399.0</ele><time>2026-03-26T15:18:00.999Z</time></trkpt><trkpt lat="43.27429147996872" lon="10.77416786196403"><ele>399.0</ele><time>2026-03-26T15:18:06.998Z</time></trkpt><trkpt lat="43.27422666154386" lon="10.77414503340432"><ele>399.0</ele><time>2026-03-26T15:18:14.998Z</time></trkpt><trkpt lat="43.274171232473556" lon="10.774089946145219"><ele>399.0</ele><time>2026-03-26T15:18:20.998Z</time></trkpt><trkpt lat="43.274113376662015" lon="10.7740244511065"><ele>399.0</ele><time>2026-03-26T15:18:26.998Z</time></trkpt><trkpt lat="43.27406631419209" lon="10.773965696573102"><ele>399.0</ele><time>2026-03-26T15:18:33Z</time></trkpt><trkpt lat="43.27401628580448" lon="10.773874483273737"><ele>399.0</ele><time>2026-03-26T15:18:40Z</time></trkpt><trkpt lat="43.27396222590661" lon="10.77382749320432"><ele>399.0</ele><time>2026-03-26T15:18:45Z</time></trkpt><trkpt lat="43.273907262280886" lon="10.773779198214655"><ele>399.2857142857143</ele><time>2026-03-26T15:18:51Z</time></trkpt><trkpt lat="43.2738582877526" lon="10.77369748027047"><ele>399.57142857142856</ele><time>2026-03-26T15:18:57Z</time></trkpt><trkpt lat="43.27379249848617" lon="10.773665202837947"><ele>399.8571428571429</ele><time>2026-03-26T15:19:01Z</time></trkpt><trkpt lat="43.2737291099137" lon="10.773625322935429"><ele>400.1428571428571</ele><time>2026-03-26T15:19:07Z</time></trkpt><trkpt lat="43.27368777273395" lon="10.773547310080724"><ele>400.42857142857144</ele><time>2026-03-26T15:19:16.999Z</time></trkpt><trkpt lat="43.27362294863453" lon="10.773527856853896"><ele>400.7142857142857</ele><time>2026-03-26T15:19:23.999Z</time></trkpt><trkpt lat="43.27355801960504" lon="10.773502418629942"><ele>401.0</ele><time>2026-03-26T15:19:36.999Z</time></trkpt><trkpt lat="43.27349788395677" lon="10.773446182955906"><ele>401.0</ele><time>2026-03-26T15:19:41.999Z</time></trkpt><trkpt lat="43.27344632551168" lon="10.77336670208759"><ele>401.0</ele><time>2026-03-26T15:19:48.999Z</time></trkpt><trkpt lat="43.273384547427725" lon="10.773320249270512"><ele>401.0</ele><time>2026-03-26T15:19:55.999Z</time></trkpt><trkpt lat="43.27332889998917" lon="10.773276115236653"><ele>401.0</ele><time>2026-03-26T15:20:00.999Z</time></trkpt><trkpt lat="43.27329128935846" lon="10.773195024253406"><ele>401.0</ele><time>2026-03-26T15:20:04.999Z</time></trkpt><trkpt lat="43.273246360718666" lon="10.773122959001851"><ele>401.0</ele><time>2026-03-26T15:20:11.999Z</time></trkpt><trkpt lat="43.27319457892874" lon="10.773061078740314"><ele>401.0</ele><time>2026-03-26T15:20:25.998Z</time></trkpt><trkpt lat="43.27314564503533" lon="10.772988041929183"><ele>397.8571428571429</ele><time>2026-03-26T15:20:31.998Z</time></trkpt><trkpt lat="43.273085658003176" lon="10.772927417652696"><ele>394.7142857142857</ele><time>2026-03-26T15:20:38Z</time></trkpt><trkpt lat="43.27304350840986" lon="10.772861149027564"><ele>391.57142857142856</ele><time>2026-03-26T15:20:44Z</time></trkpt><trkpt lat="43.2730108160595" lon="10.772775262551644"><ele>388.42857142857144</ele><time>2026-03-26T15:20:50Z</time></trkpt><trkpt lat="43.27292758916969" lon="10.77271296313825"><ele>385.2857142857143</ele><time>2026-03-26T15:21:03Z</time></trkpt><trkpt lat="43.27286543672662" lon="10.77272944976624"><ele>382.14285714285717</ele><time>2026-03-26T15:21:10Z</time></trkpt><trkpt lat="43.272798013946996" lon="10.77275805809273"><ele>379.0</ele><time>2026-03-26T15:21:17Z</time></trkpt><trkpt lat="43.27272907261646" lon="10.772777839008032"><ele>379.00000000000006</ele><time>2026-03-26T15:21:23.999Z</time></trkpt><trkpt lat="43.27265602122457" lon="10.772789974576067"><ele>379.0</ele><time>2026-03-26T15:21:29.999Z</time></trkpt><trkpt lat="43.272591920392586" lon="10.772847418913486"><ele>379.0</ele><time>2026-03-26T15:21:38.999Z</time></trkpt><trkpt lat="43.27254210556858" lon="10.772910007735518"><ele>379.0</ele><time>2026-03-26T15:21:50.999Z</time></trkpt><trkpt lat="43.27250309489497" lon="10.772985015207851"><ele>379.0</ele><time>2026-03-26T15:25:19Z</time></trkpt><trkpt lat="43.272452116157204" lon="10.773041758810876"><ele>379.00000000000006</ele><time>2026-03-26T15:25:26Z</time></trkpt><trkpt lat="43.2723821916694" lon="10.773040461624813"><ele>379.0</ele><time>2026-03-26T15:25:36.999Z</time></trkpt><trkpt lat="43.27239941684008" lon="10.773124244086947"><ele>379.00000000000006</ele><time>2026-03-26T15:25:50.999Z</time></trkpt><trkpt lat="43.27235232397669" lon="10.773049289639234"><ele>379.0</ele><time>2026-03-26T15:26:39.998Z</time></trkpt><trkpt lat="43.27233647860494" lon="10.772961377209972"><ele>379.0</ele><time>2026-03-26T15:27:24Z</time></trkpt><trkpt lat="43.2723265549229" lon="10.7728725200735"><ele>379.0</ele><time>2026-03-26T15:27:32Z</time></trkpt><trkpt lat="43.27228352754877" lon="10.772782286692383"><ele>379.0</ele><time>2026-03-26T15:28:26.999Z</time></trkpt><trkpt lat="43.27226104954967" lon="10.772688414431377"><ele>379.00000000000006</ele><time>2026-03-26T15:28:51.998Z</time></trkpt><trkpt lat="43.272269735397145" lon="10.772592070319385"><ele>379.0</ele><time>2026-03-26T15:28:58.998Z</time></trkpt><trkpt lat="43.2722425773813" lon="10.77249125164677"><ele>375.28571428571433</ele><time>2026-03-26T15:29:05Z</time></trkpt><trkpt lat="43.27222429238674" lon="10.772397992253175"><ele>371.57142857142856</ele><time>2026-03-26T15:29:11Z</time></trkpt><trkpt lat="43.27219173742862" lon="10.772306582258034"><ele>367.8571428571429</ele><time>2026-03-26T15:29:16Z</time></trkpt><trkpt lat="43.27215980518775" lon="10.772219828792688"><ele>364.14285714285717</ele><time>2026-03-26T15:29:22Z</time></trkpt><trkpt lat="43.27212404445913" lon="10.772117028843429"><ele>360.42857142857144</ele><time>2026-03-26T15:29:29Z</time></trkpt><trkpt lat="43.272108039242866" lon="10.772023237799925"><ele>356.7142857142857</ele><time>2026-03-26T15:29:35Z</time></trkpt><trkpt lat="43.27211082290126" lon="10.771932804430376"><ele>353.0</ele><time>2026-03-26T15:29:41Z</time></trkpt><trkpt lat="43.27210535560733" lon="10.771842757346315"><ele>352.57142857142856</ele><time>2026-03-26T15:29:46.999Z</time></trkpt><trkpt lat="43.27210885984148" lon="10.771748101525406"><ele>352.14285714285717</ele><time>2026-03-26T15:29:52.999Z</time></trkpt><trkpt lat="43.272127988698266" lon="10.771659946271429"><ele>351.7142857142857</ele><time>2026-03-26T15:29:58.999Z</time></trkpt><trkpt lat="43.27214584481499" lon="10.77156674083712"><ele>351.2857142857143</ele><time>2026-03-26T15:30:08.999Z</time></trkpt><trkpt lat="43.27218187489365" lon="10.771483591323623"><ele>350.8571428571429</ele><time>2026-03-26T15:30:14.999Z</time></trkpt><trkpt lat="43.27219017112202" lon="10.771397833214428"><ele>350.42857142857144</ele><time>2026-03-26T15:30:18.999Z</time></trkpt><trkpt lat="43.27220886447973" lon="10.771311025395635"><ele>350.0</ele><time>2026-03-26T15:30:24.999Z</time></trkpt><trkpt lat="43.272251073268635" lon="10.771231093317688"><ele>353.85714285714283</ele><time>2026-03-26T15:30:34.999Z</time></trkpt><trkpt lat="43.27228105748163" lon="10.771149201343567"><ele>357.7142857142857</ele><time>2026-03-26T15:30:40.999Z</time></trkpt><trkpt lat="43.272314517529544" lon="10.771069434362339"><ele>361.57142857142856</ele><time>2026-03-26T15:30:46.998Z</time></trkpt><trkpt lat="43.27235125575401" lon="10.770994939914333"><ele>365.42857142857144</ele><time>2026-03-26T15:30:51.998Z</time></trkpt><trkpt lat="43.272360007856854" lon="10.770902728424076"><ele>369.2857142857143</ele><time>2026-03-26T15:30:56.998Z</time></trkpt><trkpt lat="43.27236161781235" lon="10.770799534849727"><ele>373.1428571428571</ele><time>2026-03-26T15:31:04.998Z</time></trkpt><trkpt lat="43.272389337275925" lon="10.770719690576742"><ele>377.0</ele><time>2026-03-26T15:31:11Z</time></trkpt><trkpt lat="43.27242314623555" lon="10.770640834392715"><ele>376.99999999999994</ele><time>2026-03-26T15:31:16Z</time></trkpt><trkpt lat="43.27246599026963" lon="10.770560223652813"><ele>377.0</ele><time>2026-03-26T15:31:22Z</time></trkpt><trkpt lat="43.27251722998859" lon="10.770500424816937"><ele>377.0</ele><time>2026-03-26T15:31:27Z</time></trkpt><trkpt lat="43.27254661923605" lon="10.770418427875228"><ele>377.0</ele><time>2026-03-26T15:31:32Z</time></trkpt><trkpt lat="43.2725985085891" lon="10.770339341147285"><ele>377.0</ele><time>2026-03-26T15:31:39Z</time></trkpt><trkpt lat="43.27260753566839" lon="10.770230731050644"><ele>376.99999999999994</ele><time>2026-03-26T15:31:45Z</time></trkpt><trkpt lat="43.27261401155252" lon="10.770140651549722"><ele>377.0</ele><time>2026-03-26T15:31:49.999Z</time></trkpt><trkpt lat="43.272670411364864" lon="10.77006155726038"><ele>374.2857142857143</ele><time>2026-03-26T15:31:56.999Z</time></trkpt><trkpt lat="43.27271408102967" lon="10.769987012083652"><ele>371.57142857142856</ele><time>2026-03-26T15:32:01.999Z</time></trkpt><trkpt lat="43.272746983505684" lon="10.76989332244342"><ele>368.8571428571429</ele><time>2026-03-26T15:32:06.999Z</time></trkpt><trkpt lat="43.272759820795606" lon="10.769799179156122"><ele>366.1428571428571</ele><time>2026-03-26T15:32:11.999Z</time></trkpt><trkpt lat="43.27276732225417" lon="10.769703409045542"><ele>363.42857142857144</ele><time>2026-03-26T15:32:16.999Z</time></trkpt><trkpt lat="43.272762244331766" lon="10.769608585973687"><ele>360.7142857142857</ele><time>2026-03-26T15:32:24.999Z</time></trkpt><trkpt lat="43.272786328514755" lon="10.769508336592443"><ele>358.0</ele><time>2026-03-26T15:32:32.999Z</time></trkpt><trkpt lat="43.2728146248992" lon="10.769413388864825"><ele>357.00000000000006</ele><time>2026-03-26T15:32:40.999Z</time></trkpt><trkpt lat="43.27285070004752" lon="10.769335360536628"><ele>356.0</ele><time>2026-03-26T15:32:45.999Z</time></trkpt><trkpt lat="43.272874798641645" lon="10.769219749998356"><ele>355.0</ele><time>2026-03-26T15:32:51.998Z</time></trkpt><trkpt lat="43.27286114089306" lon="10.769128564605385"><ele>354.0</ele><time>2026-03-26T15:32:57.998Z</time></trkpt><trkpt lat="43.27282885599686" lon="10.7690428591564"><ele>353.0</ele><time>2026-03-26T15:33:03.998Z</time></trkpt><trkpt lat="43.27276332893899" lon="10.768993996191782"><ele>352.00000000000006</ele><time>2026-03-26T15:33:08.998Z</time></trkpt><trkpt lat="43.27269797768257" lon="10.768932137710634"><ele>351.0</ele><time>2026-03-26T15:33:16Z</time></trkpt><trkpt lat="43.272643745963094" lon="10.768885313241066"><ele>351.00000000000006</ele><time>2026-03-26T15:33:25Z</time></trkpt><trkpt lat="43.27265999098197" lon="10.76879852992119"><ele>351.0</ele><time>2026-03-26T15:33:31Z</time></trkpt><trkpt lat="43.27267612337463" lon="10.768714178487286"><ele>351.0</ele><time>2026-03-26T15:33:36Z</time></trkpt><trkpt lat="43.272692091838664" lon="10.768620573298584"><ele>351.0</ele><time>2026-03-26T15:33:43Z</time></trkpt><trkpt lat="43.272712246506195" lon="10.768537498621715"><ele>351.0</ele><time>2026-03-26T15:33:48Z</time></trkpt><trkpt lat="43.272729303407594" lon="10.76844520548526"><ele>351.00000000000006</ele><time>2026-03-26T15:33:56Z</time></trkpt><trkpt lat="43.27275920214511" lon="10.768352218608625"><ele>351.0</ele><time>2026-03-26T15:34:01.999Z</time></trkpt><trkpt lat="43.27279336498149" lon="10.768269804279042"><ele>352.14285714285717</ele><time>2026-03-26T15:34:08.999Z</time></trkpt><trkpt lat="43.272775509849346" lon="10.768184232468101"><ele>353.2857142857143</ele><time>2026-03-26T15:34:20.999Z</time></trkpt><trkpt lat="43.27270943500814" lon="10.76821503644297"><ele>354.42857142857144</ele><time>2026-03-26T15:34:29.999Z</time></trkpt><trkpt lat="43.27264631406526" lon="10.768264181588089"><ele>355.57142857142856</ele><time>2026-03-26T15:34:35.999Z</time></trkpt><trkpt lat="43.27258008623052" lon="10.768296578293219"><ele>356.7142857142857</ele><time>2026-03-26T15:34:44.999Z</time></trkpt><trkpt lat="43.272522224196926" lon="10.768352695859688"><ele>357.8571428571429</ele><time>2026-03-26T15:34:58.998Z</time></trkpt><trkpt lat="43.272450697433484" lon="10.768348233402994"><ele>359.0</ele><time>2026-03-26T15:35:07.998Z</time></trkpt><trkpt lat="43.27244061635662" lon="10.768262000358284"><ele>359.0</ele><time>2026-03-26T15:35:16.998Z</time></trkpt><trkpt lat="43.27246430827894" lon="10.768179510431878"><ele>359.0</ele><time>2026-03-26T15:35:42Z</time></trkpt><trkpt lat="43.2724861547411" lon="10.768098412793877"><ele>359.0</ele><time>2026-03-26T15:35:51Z</time></trkpt><trkpt lat="43.27252563504898" lon="10.768023538763368"><ele>359.0</ele><time>2026-03-26T15:36:00Z</time></trkpt><trkpt lat="43.272571121263525" lon="10.76796302139128"><ele>359.0</ele><time>2026-03-26T15:36:08.999Z</time></trkpt><trkpt lat="43.272614903153475" lon="10.767893421140952"><ele>359.0</ele><time>2026-03-26T15:36:18.999Z</time></trkpt><trkpt lat="43.27257806490143" lon="10.767812710741866"><ele>359.0</ele><time>2026-03-26T15:36:31.999Z</time></trkpt><trkpt lat="43.27251412408418" lon="10.767775502773729"><ele>359.0</ele><time>2026-03-26T15:36:42.999Z</time></trkpt><trkpt lat="43.27247226540092" lon="10.767708861068511"><ele>359.0</ele><time>2026-03-26T15:36:51.999Z</time></trkpt><trkpt lat="43.27249928485747" lon="10.767626597429373"><ele>359.0</ele><time>2026-03-26T15:37:18.998Z</time></trkpt><trkpt lat="43.27254108040506" lon="10.767555374869179"><ele>359.0</ele><time>2026-03-26T15:37:28Z</time></trkpt><trkpt lat="43.27258155454432" lon="10.767485008842844"><ele>359.0</ele><time>2026-03-26T15:37:40Z</time></trkpt><trkpt lat="43.27261589342783" lon="10.76741005565589"><ele>359.0</ele><time>2026-03-26T15:37:48Z</time></trkpt><trkpt lat="43.272667600299734" lon="10.76734686594941"><ele>359.0</ele><time>2026-03-26T15:37:58Z</time></trkpt><trkpt lat="43.272703523981335" lon="10.767273056025525"><ele>362.14285714285717</ele><time>2026-03-26T15:38:08Z</time></trkpt><trkpt lat="43.272763151607066" lon="10.767222203919468"><ele>365.28571428571433</ele><time>2026-03-26T15:38:16.999Z</time></trkpt><trkpt lat="43.27281332448832" lon="10.767167453851895"><ele>368.42857142857144</ele><time>2026-03-26T15:38:26.999Z</time></trkpt><trkpt lat="43.272892315107505" lon="10.767149791949448"><ele>371.57142857142856</ele><time>2026-03-26T15:38:35.999Z</time></trkpt><trkpt lat="43.27295966914941" lon="10.767153803596555"><ele>374.7142857142857</ele><time>2026-03-26T15:38:47.999Z</time></trkpt><trkpt lat="43.27302300528751" lon="10.767144987494998"><ele>377.85714285714283</ele><time>2026-03-26T15:38:56.999Z</time></trkpt><trkpt lat="43.27308657952111" lon="10.767117496137839"><ele>381.0</ele><time>2026-03-26T15:39:06.999Z</time></trkpt><trkpt lat="43.27315217119314" lon="10.767091434209384"><ele>381.85714285714283</ele><time>2026-03-26T15:39:15.998Z</time></trkpt><trkpt lat="43.27321619846219" lon="10.767057718475657"><ele>382.7142857142857</ele><time>2026-03-26T15:39:23.998Z</time></trkpt><trkpt lat="43.27327628658463" lon="10.7670278547212"><ele>383.57142857142856</ele><time>2026-03-26T15:39:30.998Z</time></trkpt><trkpt lat="43.27334104180184" lon="10.766994917523633"><ele>384.42857142857144</ele><time>2026-03-26T15:39:44Z</time></trkpt><trkpt lat="43.2733340514222" lon="10.76690624050566"><ele>385.28571428571433</ele><time>2026-03-26T15:40:58.999Z</time></trkpt><trkpt lat="43.27327970159907" lon="10.766851125045008"><ele>386.14285714285717</ele><time>2026-03-26T15:41:09.999Z</time></trkpt><trkpt lat="43.273239900228724" lon="10.766775489339086"><ele>387.0</ele><time>2026-03-26T15:41:17.998Z</time></trkpt><trkpt lat="43.27319483471491" lon="10.76670718702952"><ele>389.42857142857144</ele><time>2026-03-26T15:41:24.998Z</time></trkpt><trkpt lat="43.27315893724395" lon="10.766634824072803"><ele>391.8571428571429</ele><time>2026-03-26T15:41:34.998Z</time></trkpt><trkpt lat="43.27311019558049" lon="10.76657488519409"><ele>394.2857142857143</ele><time>2026-03-26T15:41:42Z</time></trkpt><trkpt lat="43.27304902379173" lon="10.766542973160583"><ele>396.7142857142857</ele><time>2026-03-26T15:41:48Z</time></trkpt><trkpt lat="43.2729902545601" lon="10.766481940018206"><ele>399.1428571428571</ele><time>2026-03-26T15:41:56Z</time></trkpt><trkpt lat="43.272949099239206" lon="10.766410475988746"><ele>401.57142857142856</ele><time>2026-03-26T15:42:03Z</time></trkpt><trkpt lat="43.27290711333562" lon="10.766331353055218"><ele>404.0</ele><time>2026-03-26T15:42:11Z</time></trkpt><trkpt lat="43.27285202251993" lon="10.766289118107276"><ele>404.0</ele><time>2026-03-26T15:42:53.999Z</time></trkpt><trkpt lat="43.272789766373506" lon="10.766258850228478"><ele>404.0</ele><time>2026-03-26T15:42:59.999Z</time></trkpt><trkpt lat="43.272728741940014" lon="10.766221662586263"><ele>404.0</ele><time>2026-03-26T15:43:09.999Z</time></trkpt><trkpt lat="43.27265743327261" lon="10.766237082471166"><ele>404.0</ele><time>2026-03-26T15:43:15.999Z</time></trkpt><trkpt lat="43.27259238607181" lon="10.766272045794265"><ele>404.0</ele><time>2026-03-26T15:43:21.998Z</time></trkpt><trkpt lat="43.27254314145853" lon="10.766336164505734"><ele>404.0</ele><time>2026-03-26T15:43:27.998Z</time></trkpt><trkpt lat="43.27252040361559" lon="10.766427613308917"><ele>404.0</ele><time>2026-03-26T15:43:37.998Z</time></trkpt><trkpt lat="43.27247443412064" lon="10.766504229822146"><ele>404.0</ele><time>2026-03-26T15:43:45Z</time></trkpt><trkpt lat="43.27241714110762" lon="10.766543825582007"><ele>404.0</ele><time>2026-03-26T15:43:51Z</time></trkpt><trkpt lat="43.27234706319055" lon="10.766571881182363"><ele>404.0</ele><time>2026-03-26T15:43:56Z</time></trkpt><trkpt lat="43.27227772790851" lon="10.766581537233762"><ele>404.0</ele><time>2026-03-26T15:44:01Z</time></trkpt><trkpt lat="43.27221048882108" lon="10.76657587482258"><ele>404.0</ele><time>2026-03-26T15:44:06Z</time></trkpt><trkpt lat="43.272144624880575" lon="10.766558306680283"><ele>404.0</ele><time>2026-03-26T15:44:12Z</time></trkpt><trkpt lat="43.27207635828308" lon="10.76657454813945"><ele>404.0</ele><time>2026-03-26T15:44:17Z</time></trkpt><trkpt lat="43.272012873625954" lon="10.766567963364846"><ele>403.85714285714283</ele><time>2026-03-26T15:44:23Z</time></trkpt><trkpt lat="43.271945311294644" lon="10.766575464746644"><ele>403.71428571428567</ele><time>2026-03-26T15:44:27.999Z</time></trkpt><trkpt lat="43.271873141695636" lon="10.766605272003426"><ele>403.57142857142856</ele><time>2026-03-26T15:44:33.999Z</time></trkpt><trkpt lat="43.271810828754916" lon="10.766642055695552"><ele>403.42857142857144</ele><time>2026-03-26T15:44:38.999Z</time></trkpt><trkpt lat="43.27174142872523" lon="10.766673113576125"><ele>403.2857142857143</ele><time>2026-03-26T15:44:44.999Z</time></trkpt><trkpt lat="43.27167583043289" lon="10.766681754368028"><ele>403.14285714285717</ele><time>2026-03-26T15:44:50.999Z</time></trkpt><trkpt lat="43.27161170539881" lon="10.766694129353018"><ele>403.0</ele><time>2026-03-26T15:44:55.999Z</time></trkpt><trkpt lat="43.27155604624546" lon="10.766736474046954"><ele>403.0</ele><time>2026-03-26T15:45:01.999Z</time></trkpt><trkpt lat="43.2715498939529" lon="10.76683669837274"><ele>403.0</ele><time>2026-03-26T15:45:07.999Z</time></trkpt><trkpt lat="43.271543770357084" lon="10.76692475027152"><ele>403.0</ele><time>2026-03-26T15:45:14.999Z</time></trkpt><trkpt lat="43.271488955120134" lon="10.76698010758897"><ele>403.0</ele><time>2026-03-26T15:45:20.999Z</time></trkpt><trkpt lat="43.27144343097246" lon="10.767047370977485"><ele>403.0</ele><time>2026-03-26T15:45:26.998Z</time></trkpt><trkpt lat="43.27138993295813" lon="10.767098420341148"><ele>403.0</ele><time>2026-03-26T15:45:33.998Z</time></trkpt><trkpt lat="43.271328880817414" lon="10.767120550541284"><ele>403.0</ele><time>2026-03-26T15:45:39.998Z</time></trkpt><trkpt lat="43.271308423644406" lon="10.767209689581945"><ele>401.14285714285717</ele><time>2026-03-26T15:45:46.998Z</time></trkpt><trkpt lat="43.27128661255212" lon="10.767291238822652"><ele>399.2857142857143</ele><time>2026-03-26T15:45:54Z</time></trkpt><trkpt lat="43.27123616580037" lon="10.767352420083467"><ele>397.42857142857144</ele><time>2026-03-26T15:46:00Z</time></trkpt><trkpt lat="43.27117242004254" lon="10.767399295704399"><ele>395.57142857142856</ele><time>2026-03-26T15:46:09Z</time></trkpt><trkpt lat="43.271112606752396" lon="10.76746447098908"><ele>393.71428571428567</ele><time>2026-03-26T15:46:16Z</time></trkpt><trkpt lat="43.271045383777455" lon="10.7675081376557"><ele>391.85714285714283</ele><time>2026-03-26T15:46:25Z</time></trkpt><trkpt lat="43.27098402324181" lon="10.767536595843248"><ele>390.0</ele><time>2026-03-26T15:46:32Z</time></trkpt><trkpt lat="43.27092203831073" lon="10.767563687568716"><ele>390.0</ele><time>2026-03-26T15:46:41.999Z</time></trkpt><trkpt lat="43.27086624968612" lon="10.767607807343234"><ele>390.0</ele><time>2026-03-26T15:47:21.999Z</time></trkpt><trkpt lat="43.27082756397077" lon="10.767679593829012"><ele>390.0</ele><time>2026-03-26T15:47:27.999Z</time></trkpt><trkpt lat="43.27077645224492" lon="10.76773574753457"><ele>390.0</ele><time>2026-03-26T15:47:43.998Z</time></trkpt><trkpt lat="43.270720459009574" lon="10.767781146993167"><ele>390.0</ele><time>2026-03-26T15:47:57Z</time></trkpt><trkpt lat="43.270658856173505" lon="10.767833189139704"><ele>390.0</ele><time>2026-03-26T15:48:03Z</time></trkpt><trkpt lat="43.2705859891838" lon="10.76786039904586"><ele>390.0</ele><time>2026-03-26T15:48:12Z</time></trkpt><trkpt lat="43.2705188868272" lon="10.767899779015599"><ele>388.2857142857143</ele><time>2026-03-26T15:48:20Z</time></trkpt><trkpt lat="43.270532557289584" lon="10.767986567333798"><ele>386.57142857142856</ele><time>2026-03-26T15:48:26Z</time></trkpt><trkpt lat="43.270547115025565" lon="10.768084103155106"><ele>384.8571428571429</ele><time>2026-03-26T15:48:30Z</time></trkpt><trkpt lat="43.27058783905398" lon="10.76816805125907"><ele>383.1428571428571</ele><time>2026-03-26T15:48:37.999Z</time></trkpt><trkpt lat="43.270645033160065" lon="10.768227958204227"><ele>381.42857142857144</ele><time>2026-03-26T15:48:43.999Z</time></trkpt><trkpt lat="43.27069442956786" lon="10.768298932667856"><ele>379.7142857142857</ele><time>2026-03-26T15:48:53.999Z</time></trkpt><trkpt lat="43.27076124018044" lon="10.768316369855734"><ele>378.0</ele><time>2026-03-26T15:49:00.999Z</time></trkpt><trkpt lat="43.27082573967191" lon="10.768338467294091"><ele>378.0</ele><time>2026-03-26T15:49:06.999Z</time></trkpt><trkpt lat="43.27089875259711" lon="10.76836679822844"><ele>378.0</ele><time>2026-03-26T15:49:11.999Z</time></trkpt><trkpt lat="43.270937913725895" lon="10.768447533494633"><ele>378.0</ele><time>2026-03-26T15:49:25.999Z</time></trkpt><trkpt lat="43.2708973384323" lon="10.76851947960713"><ele>378.0</ele><time>2026-03-26T15:49:33.999Z</time></trkpt><trkpt lat="43.27084282509796" lon="10.768567092033596"><ele>378.0</ele><time>2026-03-26T15:49:39.998Z</time></trkpt><trkpt lat="43.27079584587431" lon="10.768629233234465"><ele>378.0</ele><time>2026-03-26T15:49:45.998Z</time></trkpt><trkpt lat="43.27073846157495" lon="10.768671082573656"><ele>378.0</ele><time>2026-03-26T15:49:53.998Z</time></trkpt><trkpt lat="43.270691792954906" lon="10.768736402247603"><ele>374.2857142857143</ele><time>2026-03-26T15:50:07Z</time></trkpt><trkpt lat="43.27064190937766" lon="10.768793566529215"><ele>370.57142857142856</ele><time>2026-03-26T15:50:13Z</time></trkpt><trkpt lat="43.27060558218757" lon="10.768864423434163"><ele>366.8571428571429</ele><time>2026-03-26T15:50:22Z</time></trkpt><trkpt lat="43.27055505259434" lon="10.76891794216991"><ele>363.1428571428571</ele><time>2026-03-26T15:50:31Z</time></trkpt><trkpt lat="43.270546368197316" lon="10.769009631479335"><ele>359.42857142857144</ele><time>2026-03-26T15:50:58.999Z</time></trkpt><trkpt lat="43.27047441660149" lon="10.769041423287158"><ele>355.7142857142857</ele><time>2026-03-26T15:51:11.999Z</time></trkpt><trkpt lat="43.27041309202149" lon="10.769071273457001"><ele>352.0</ele><time>2026-03-26T15:51:30.999Z</time></trkpt><trkpt lat="43.27034342773003" lon="10.769083466442366"><ele>350.42857142857144</ele><time>2026-03-26T15:51:37.999Z</time></trkpt><trkpt lat="43.27026563495707" lon="10.769094810053367"><ele>348.85714285714283</ele><time>2026-03-26T15:51:43.998Z</time></trkpt><trkpt lat="43.270202653763896" lon="10.769126372392334"><ele>347.2857142857143</ele><time>2026-03-26T15:51:51.998Z</time></trkpt><trkpt lat="43.27012807328996" lon="10.769108918172053"><ele>345.7142857142857</ele><time>2026-03-26T15:52:05.998Z</time></trkpt><trkpt lat="43.27006457845091" lon="10.769063309217845"><ele>344.14285714285717</ele><time>2026-03-26T15:52:21Z</time></trkpt><trkpt lat="43.2700045618101" lon="10.769001820105135"><ele>342.57142857142856</ele><time>2026-03-26T15:52:39Z</time></trkpt><trkpt lat="43.26994745781079" lon="10.768940499780797"><ele>341.0</ele><time>2026-03-26T15:52:44.999Z</time></trkpt><trkpt lat="43.269881348966685" lon="10.768914911072189"><ele>341.0</ele><time>2026-03-26T15:52:51.999Z</time></trkpt><trkpt lat="43.26981588955713" lon="10.768897747150532"><ele>341.0</ele><time>2026-03-26T15:52:57.999Z</time></trkpt><trkpt lat="43.26975010049811" lon="10.768888705780917"><ele>341.0</ele><time>2026-03-26T15:53:03.999Z</time></trkpt><trkpt lat="43.26970864983306" lon="10.768803724034479"><ele>341.0</ele><time>2026-03-26T15:53:11.999Z</time></trkpt><trkpt lat="43.26970289380972" lon="10.768713848819443"><ele>341.0</ele><time>2026-03-26T15:53:16.999Z</time></trkpt><trkpt lat="43.26973206313315" lon="10.768625967052282"><ele>341.0</ele><time>2026-03-26T15:53:21.999Z</time></trkpt><trkpt lat="43.26974427245817" lon="10.768533834807508"><ele>341.0</ele><time>2026-03-26T15:53:26.999Z</time></trkpt><trkpt lat="43.26975070210039" lon="10.768432482259978"><ele>336.57142857142856</ele><time>2026-03-26T15:53:32.999Z</time></trkpt><trkpt lat="43.269705651479406" lon="10.7683662918743"><ele>332.14285714285717</ele><time>2026-03-26T15:53:37.999Z</time></trkpt><trkpt lat="43.26966689348716" lon="10.768296633147624"><ele>327.7142857142857</ele><time>2026-03-26T15:53:41.999Z</time></trkpt><trkpt lat="43.26963564797594" lon="10.76821578963461"><ele>323.2857142857143</ele><time>2026-03-26T15:53:47.998Z</time></trkpt><trkpt lat="43.269603542121416" lon="10.76813122145574"><ele>318.85714285714283</ele><time>2026-03-26T15:53:52.998Z</time></trkpt><trkpt lat="43.26958263445977" lon="10.768039239868399"><ele>314.42857142857144</ele><time>2026-03-26T15:53:57.998Z</time></trkpt><trkpt lat="43.26958986646101" lon="10.767944549762763"><ele>310.0</ele><time>2026-03-26T15:54:02.998Z</time></trkpt><trkpt lat="43.26958505865002" lon="10.767841223787586"><ele>310.0</ele><time>2026-03-26T15:54:08.998Z</time></trkpt><trkpt lat="43.269554271745" lon="10.767761782477399"><ele>310.0</ele><time>2026-03-26T15:54:14Z</time></trkpt><trkpt lat="43.269509470344616" lon="10.767685563596824"><ele>310.0</ele><time>2026-03-26T15:54:19Z</time></trkpt><trkpt lat="43.26947414206591" lon="10.76760909691248"><ele>310.0</ele><time>2026-03-26T15:54:26Z</time></trkpt><trkpt lat="43.26945976385945" lon="10.76749847576836"><ele>310.0</ele><time>2026-03-26T15:54:32Z</time></trkpt><trkpt lat="43.269427792539936" lon="10.767408355118912"><ele>310.0</ele><time>2026-03-26T15:54:37Z</time></trkpt><trkpt lat="43.26938552601809" lon="10.767330010757345"><ele>310.0</ele><time>2026-03-26T15:54:42Z</time></trkpt><trkpt lat="43.26935476396329" lon="10.767244605094822"><ele>310.8571428571429</ele><time>2026-03-26T15:54:47Z</time></trkpt><trkpt lat="43.269328828659965" lon="10.767163444341643"><ele>311.7142857142857</ele><time>2026-03-26T15:54:51.999Z</time></trkpt><trkpt lat="43.26927004741822" lon="10.767100702536888"><ele>312.57142857142856</ele><time>2026-03-26T15:54:55.999Z</time></trkpt><trkpt lat="43.26920946668223" lon="10.767066705636642"><ele>313.42857142857144</ele><time>2026-03-26T15:54:59.999Z</time></trkpt><trkpt lat="43.26913821826324" lon="10.767042992980292"><ele>314.2857142857143</ele><time>2026-03-26T15:55:05.999Z</time></trkpt><trkpt lat="43.26910226993218" lon="10.767121006440936"><ele>315.14285714285717</ele><time>2026-03-26T15:55:24.999Z</time></trkpt><trkpt lat="43.2690351438891" lon="10.767154538204476"><ele>316.0</ele><time>2026-03-26T15:55:31.999Z</time></trkpt><trkpt lat="43.26898591287941" lon="10.767209375173586"><ele>312.14285714285717</ele><time>2026-03-26T15:55:39.999Z</time></trkpt><trkpt lat="43.26892682636942" lon="10.767239677125371"><ele>308.2857142857143</ele><time>2026-03-26T15:55:50.999Z</time></trkpt><trkpt lat="43.26886209304352" lon="10.76727468870477"><ele>304.42857142857144</ele><time>2026-03-26T15:55:59.998Z</time></trkpt><trkpt lat="43.26879954586478" lon="10.767312405381809"><ele>300.57142857142856</ele><time>2026-03-26T15:56:04.998Z</time></trkpt><trkpt lat="43.26873735719744" lon="10.767385518176141"><ele>296.7142857142857</ele><time>2026-03-26T15:56:48Z</time></trkpt><trkpt lat="43.268695821218635" lon="10.767465342845233"><ele>292.8571428571429</ele><time>2026-03-26T15:57:06.999Z</time></trkpt><trkpt lat="43.26866188252197" lon="10.767540713574634"><ele>289.0</ele><time>2026-03-26T15:57:13.999Z</time></trkpt><trkpt lat="43.268650693610894" lon="10.767632131936832"><ele>288.8571428571429</ele><time>2026-03-26T15:57:20.999Z</time></trkpt><trkpt lat="43.26863673790981" lon="10.767771497902773"><ele>288.7142857142857</ele><time>2026-03-26T15:57:40.999Z</time></trkpt><trkpt lat="43.2685845060066" lon="10.767822966869096"><ele>288.57142857142856</ele><time>2026-03-26T15:57:44.999Z</time></trkpt><trkpt lat="43.268528883823414" lon="10.767866833486856"><ele>288.42857142857144</ele><time>2026-03-26T15:57:50.999Z</time></trkpt><trkpt lat="43.26846078869517" lon="10.767867395610347"><ele>288.2857142857143</ele><time>2026-03-26T15:57:55.999Z</time></trkpt><trkpt lat="43.2683926780034" lon="10.76784398515277"><ele>288.14285714285717</ele><time>2026-03-26T15:58:00.999Z</time></trkpt><trkpt lat="43.26832409596764" lon="10.767857153816369"><ele>288.0</ele><time>2026-03-26T15:58:05.998Z</time></trkpt><trkpt lat="43.268289642890466" lon="10.767772118096257"><ele>288.14285714285717</ele><time>2026-03-26T15:58:11.998Z</time></trkpt><trkpt lat="43.268296833144014" lon="10.767669624537845"><ele>288.2857142857143</ele><time>2026-03-26T15:58:17.998Z</time></trkpt><trkpt lat="43.26829691353587" lon="10.767567707391052"><ele>288.42857142857144</ele><time>2026-03-26T15:58:24.998Z</time></trkpt><trkpt lat="43.26825752128205" lon="10.767492402018789"><ele>288.57142857142856</ele><time>2026-03-26T15:58:31Z</time></trkpt><trkpt lat="43.26819662732949" lon="10.767466950007057"><ele>288.7142857142857</ele><time>2026-03-26T15:58:39Z</time></trkpt><trkpt lat="43.268132801878096" lon="10.767495075377816"><ele>288.8571428571429</ele><time>2026-03-26T15:58:44Z</time></trkpt><trkpt lat="43.26811300221113" lon="10.767578886517855"><ele>289.0</ele><time>2026-03-26T15:58:50Z</time></trkpt><trkpt lat="43.26807192958885" lon="10.767652119510794"><ele>289.57142857142856</ele><time>2026-03-26T15:59:03Z</time></trkpt><trkpt lat="43.26799612968733" lon="10.76766831037643"><ele>290.1428571428571</ele><time>2026-03-26T15:59:11.999Z</time></trkpt><trkpt lat="43.26793048380092" lon="10.76766162001653"><ele>290.71428571428567</ele><time>2026-03-26T15:59:32.999Z</time></trkpt><trkpt lat="43.26796276304491" lon="10.767577149280983"><ele>291.2857142857143</ele><time>2026-03-26T16:00:21.998Z</time></trkpt><trkpt lat="43.26792906141644" lon="10.767497968484834"><ele>291.85714285714283</ele><time>2026-03-26T16:00:30.998Z</time></trkpt><trkpt lat="43.26795959340604" lon="10.767422074134204"><ele>292.4285714285714</ele><time>2026-03-26T16:00:41Z</time></trkpt><trkpt lat="43.267960148168584" lon="10.767325136754687"><ele>293.0</ele><time>2026-03-26T16:01:06Z</time></trkpt><trkpt lat="43.267953541530616" lon="10.767235733464721"><ele>292.99999999999994</ele><time>2026-03-26T16:01:16Z</time></trkpt><trkpt lat="43.26790866759295" lon="10.76716423325385"><ele>293.0</ele><time>2026-03-26T16:01:23.999Z</time></trkpt><trkpt lat="43.26787200240282" lon="10.767088803310182"><ele>293.0</ele><time>2026-03-26T16:01:32.999Z</time></trkpt><trkpt lat="43.267859089727004" lon="10.767000323396141"><ele>293.0</ele><time>2026-03-26T16:01:44.999Z</time></trkpt><trkpt lat="43.267850167773105" lon="10.766913460515022"><ele>293.0</ele><time>2026-03-26T16:01:56.999Z</time></trkpt><trkpt lat="43.26781794118413" lon="10.76682938751849"><ele>292.99999999999994</ele><time>2026-03-26T16:02:07.999Z</time></trkpt><trkpt lat="43.26781945412194" lon="10.766736713950316"><ele>293.0</ele><time>2026-03-26T16:02:16.999Z</time></trkpt><trkpt lat="43.26780673227087" lon="10.766643359714255"><ele>293.1428571428571</ele><time>2026-03-26T16:02:24.998Z</time></trkpt><trkpt lat="43.267817939958775" lon="10.766554416369678"><ele>293.2857142857143</ele><time>2026-03-26T16:02:34.998Z</time></trkpt><trkpt lat="43.26788385466915" lon="10.766529305661235"><ele>293.42857142857144</ele><time>2026-03-26T16:02:47Z</time></trkpt><trkpt lat="43.26795270227091" lon="10.766523351210834"><ele>293.57142857142856</ele><time>2026-03-26T16:02:56Z</time></trkpt><trkpt lat="43.26800850860487" lon="10.766475869399596"><ele>293.7142857142857</ele><time>2026-03-26T16:03:05Z</time></trkpt><trkpt lat="43.26805745247509" lon="10.76640900638463"><ele>293.85714285714283</ele><time>2026-03-26T16:03:13Z</time></trkpt><trkpt lat="43.26808423831014" lon="10.766324717758666"><ele>294.0</ele><time>2026-03-26T16:03:21Z</time></trkpt><trkpt lat="43.2681019675394" lon="10.766238559323357"><ele>294.0</ele><time>2026-03-26T16:03:29.999Z</time></trkpt><trkpt lat="43.268097629242114" lon="10.766140831719733"><ele>294.0</ele><time>2026-03-26T16:03:42.999Z</time></trkpt><trkpt lat="43.26806013939087" lon="10.766055008933295"><ele>294.0</ele><time>2026-03-26T16:03:54.999Z</time></trkpt><trkpt lat="43.268011995681356" lon="10.765995164514987"><ele>294.0</ele><time>2026-03-26T16:03:59.999Z</time></trkpt><trkpt lat="43.267952409356305" lon="10.765937745890918"><ele>294.0</ele><time>2026-03-26T16:04:06.999Z</time></trkpt><trkpt lat="43.26790359789095" lon="10.765874028941965"><ele>294.0</ele><time>2026-03-26T16:04:12.999Z</time></trkpt><trkpt lat="43.267847835282595" lon="10.765819450925303"><ele>294.0</ele><time>2026-03-26T16:04:20.998Z</time></trkpt><trkpt lat="43.267792367358126" lon="10.765768066200666"><ele>296.57142857142856</ele><time>2026-03-26T16:04:26.998Z</time></trkpt><trkpt lat="43.26773762825508" lon="10.765709795908903"><ele>299.1428571428571</ele><time>2026-03-26T16:04:32.998Z</time></trkpt><trkpt lat="43.26767905013103" lon="10.765648168814167"><ele>301.7142857142857</ele><time>2026-03-26T16:04:38.998Z</time></trkpt><trkpt lat="43.26763341837145" lon="10.765564690765482"><ele>304.2857142857143</ele><time>2026-03-26T16:04:46Z</time></trkpt><trkpt lat="43.26757711575258" lon="10.765516069308914"><ele>306.85714285714283</ele><time>2026-03-26T16:05:19Z</time></trkpt><trkpt lat="43.26752804376461" lon="10.765455103112487"><ele>309.42857142857144</ele><time>2026-03-26T16:05:26Z</time></trkpt><trkpt lat="43.26745135746765" lon="10.76544082455013"><ele>312.0</ele><time>2026-03-26T16:05:31.999Z</time></trkpt><trkpt lat="43.267383828945846" lon="10.765450689029013"><ele>312.0</ele><time>2026-03-26T16:05:38.999Z</time></trkpt><trkpt lat="43.26731555212706" lon="10.765484377647045"><ele>312.0</ele><time>2026-03-26T16:05:46.999Z</time></trkpt><trkpt lat="43.267252582663346" lon="10.765503589696769"><ele>312.0</ele><time>2026-03-26T16:05:52.999Z</time></trkpt><trkpt lat="43.26718786935111" lon="10.765482113718575"><ele>312.0</ele><time>2026-03-26T16:05:58.999Z</time></trkpt><trkpt lat="43.26713151004783" lon="10.765439053233969"><ele>312.0</ele><time>2026-03-26T16:06:04.999Z</time></trkpt><trkpt lat="43.267068323608704" lon="10.765400932202263"><ele>312.0</ele><time>2026-03-26T16:06:10.999Z</time></trkpt><trkpt lat="43.267008895414634" lon="10.76536356545396"><ele>312.0</ele><time>2026-03-26T16:06:17.999Z</time></trkpt><trkpt lat="43.26694806578489" lon="10.765327835388153"><ele>312.7142857142857</ele><time>2026-03-26T16:06:23.999Z</time></trkpt><trkpt lat="43.26689052330743" lon="10.765273865690906"><ele>313.4285714285714</ele><time>2026-03-26T16:06:29.998Z</time></trkpt><trkpt lat="43.26684271044159" lon="10.765209779614585"><ele>314.1428571428571</ele><time>2026-03-26T16:06:34.998Z</time></trkpt><trkpt lat="43.26679165522847" lon="10.76515692756672"><ele>314.8571428571429</ele><time>2026-03-26T16:06:40.998Z</time></trkpt><trkpt lat="43.26672770036656" lon="10.765110275185828"><ele>315.57142857142856</ele><time>2026-03-26T16:06:46.998Z</time></trkpt><trkpt lat="43.266670884850875" lon="10.765070181951847"><ele>316.2857142857143</ele><time>2026-03-26T16:06:53Z</time></trkpt><trkpt lat="43.26661161985972" lon="10.76502839243657"><ele>317.0</ele><time>2026-03-26T16:06:59Z</time></trkpt><trkpt lat="43.266554167429184" lon="10.764976664192703"><ele>317.0</ele><time>2026-03-26T16:07:06Z</time></trkpt><trkpt lat="43.266497896040605" lon="10.764916575276366"><ele>317.0</ele><time>2026-03-26T16:07:12Z</time></trkpt><trkpt lat="43.266446895822924" lon="10.764855181655626"><ele>317.0</ele><time>2026-03-26T16:07:18Z</time></trkpt><trkpt lat="43.26638706488031" lon="10.764803725479902"><ele>317.0</ele><time>2026-03-26T16:07:25Z</time></trkpt><trkpt lat="43.266352561545375" lon="10.764729731328073"><ele>317.0</ele><time>2026-03-26T16:07:32.999Z</time></trkpt><trkpt lat="43.2663902981194" lon="10.764643758917183"><ele>317.0</ele><time>2026-03-26T16:07:42.999Z</time></trkpt><trkpt lat="43.26640891480596" lon="10.764557609410694"><ele>317.0</ele><time>2026-03-26T16:07:52.999Z</time></trkpt><trkpt lat="43.26643681501309" lon="10.764478972138038"><ele>317.0</ele><time>2026-03-26T16:08:00.999Z</time></trkpt><trkpt lat="43.26644526773935" lon="10.764392048075202"><ele>317.0</ele><time>2026-03-26T16:08:21.999Z</time></trkpt><trkpt lat="43.26649652629246" lon="10.764322818653918"><ele>317.0</ele><time>2026-03-26T16:08:44.998Z</time></trkpt><trkpt lat="43.266551684810906" lon="10.764276038391342"><ele>317.0</ele><time>2026-03-26T16:09:08Z</time></trkpt><trkpt lat="43.26661547182278" lon="10.764258676441015"><ele>317.0</ele><time>2026-03-26T16:09:21Z</time></trkpt><trkpt lat="43.26668268819314" lon="10.764251001178563"><ele>317.0</ele><time>2026-03-26T16:09:41.999Z</time></trkpt><trkpt lat="43.266754537590785" lon="10.764258855876324"><ele>317.0</ele><time>2026-03-26T16:09:51.999Z</time></trkpt><trkpt lat="43.26681214785167" lon="10.764200006121982"><ele>318.7142857142857</ele><time>2026-03-26T16:10:00.999Z</time></trkpt><trkpt lat="43.266877791984946" lon="10.764162566705851"><ele>320.42857142857144</ele><time>2026-03-26T16:10:10.999Z</time></trkpt><trkpt lat="43.266946076733774" lon="10.764140928227514"><ele>322.1428571428571</ele><time>2026-03-26T16:10:18.999Z</time></trkpt><trkpt lat="43.26701694985084" lon="10.764126556856422"><ele>323.8571428571429</ele><time>2026-03-26T16:10:28.999Z</time></trkpt><trkpt lat="43.26709015150494" lon="10.764115036542362"><ele>325.57142857142856</ele><time>2026-03-26T16:10:38.998Z</time></trkpt><trkpt lat="43.26715328113025" lon="10.764074825508732"><ele>327.2857142857143</ele><time>2026-03-26T16:10:46.998Z</time></trkpt><trkpt lat="43.267216691146665" lon="10.764035371832124"><ele>329.0</ele><time>2026-03-26T16:11:08Z</time></trkpt><trkpt lat="43.26728342720457" lon="10.764031884525528"><ele>332.0</ele><time>2026-03-26T16:11:15Z</time></trkpt><trkpt lat="43.26734713924209" lon="10.76402981935453"><ele>335.0</ele><time>2026-03-26T16:11:22Z</time></trkpt><trkpt lat="43.26741323472764" lon="10.76402942823007"><ele>338.0</ele><time>2026-03-26T16:11:32Z</time></trkpt><trkpt lat="43.26747063833596" lon="10.763977887147876"><ele>341.0</ele><time>2026-03-26T16:11:47.999Z</time></trkpt><trkpt lat="43.26752401606722" lon="10.763928558365631"><ele>344.0</ele><time>2026-03-26T16:11:54.999Z</time></trkpt><trkpt lat="43.267583050087794" lon="10.763884912710127"><ele>347.0</ele><time>2026-03-26T16:12:03.999Z</time></trkpt><trkpt lat="43.26764807038106" lon="10.76387077096559"><ele>350.0</ele><time>2026-03-26T16:12:12.999Z</time></trkpt><trkpt lat="43.26771272734078" lon="10.76385621736665"><ele>350.0</ele><time>2026-03-26T16:12:41.999Z</time></trkpt><trkpt lat="43.2677785265718" lon="10.763806704709625"><ele>350.0</ele><time>2026-03-26T16:12:53.998Z</time></trkpt><trkpt lat="43.26785106226251" lon="10.763734140416073"><ele>350.0</ele><time>2026-03-26T16:13:23Z</time></trkpt><trkpt lat="43.26788704919716" lon="10.763654450163326"><ele>350.0</ele><time>2026-03-26T16:13:32Z</time></trkpt><trkpt lat="43.267938664958926" lon="10.763525899543637"><ele>350.0</ele><time>2026-03-26T16:14:04.999Z</time></trkpt><trkpt lat="43.267986968595444" lon="10.76346913967286"><ele>350.0</ele><time>2026-03-26T16:14:16.999Z</time></trkpt><trkpt lat="43.268035937279855" lon="10.763407528082055"><ele>350.42857142857144</ele><time>2026-03-26T16:14:24.999Z</time></trkpt><trkpt lat="43.26809050597238" lon="10.763351360139016"><ele>350.8571428571429</ele><time>2026-03-26T16:14:36.999Z</time></trkpt><trkpt lat="43.26815330933482" lon="10.763344979760031"><ele>351.2857142857143</ele><time>2026-03-26T16:14:45.999Z</time></trkpt><trkpt lat="43.268211871130056" lon="10.763385457081293"><ele>351.7142857142857</ele><time>2026-03-26T16:14:57.998Z</time></trkpt><trkpt lat="43.26826674348089" lon="10.763441141236031"><ele>352.14285714285717</ele><time>2026-03-26T16:15:07.998Z</time></trkpt><trkpt lat="43.26832714378789" lon="10.763493238989083"><ele>352.57142857142856</ele><time>2026-03-26T16:15:17Z</time></trkpt><trkpt lat="43.268387868584064" lon="10.763545702522498"><ele>353.0</ele><time>2026-03-26T16:15:26Z</time></trkpt><trkpt lat="43.268452819648516" lon="10.763571732142301"><ele>355.2857142857143</ele><time>2026-03-26T16:15:36Z</time></trkpt><trkpt lat="43.26851974141132" lon="10.763584203863157"><ele>357.5714285714286</ele><time>2026-03-26T16:15:46Z</time></trkpt><trkpt lat="43.26857723226694" lon="10.763544136348289"><ele>359.8571428571429</ele><time>2026-03-26T16:16:07.999Z</time></trkpt><trkpt lat="43.268640780061155" lon="10.763546283041606"><ele>362.1428571428571</ele><time>2026-03-26T16:16:15.999Z</time></trkpt><trkpt lat="43.26870544402669" lon="10.76353984233358"><ele>364.42857142857144</ele><time>2026-03-26T16:16:27.999Z</time></trkpt><trkpt lat="43.26876935282344" lon="10.763515399311533"><ele>366.7142857142857</ele><time>2026-03-26T16:16:36.999Z</time></trkpt><trkpt lat="43.26884107182674" lon="10.763510326079475"><ele>369.0</ele><time>2026-03-26T16:16:43.999Z</time></trkpt><trkpt lat="43.26891152210795" lon="10.763532806885074"><ele>371.85714285714283</ele><time>2026-03-26T16:16:52.998Z</time></trkpt><trkpt lat="43.26897960041496" lon="10.763544133398424"><ele>374.71428571428567</ele><time>2026-03-26T16:17:00.998Z</time></trkpt><trkpt lat="43.26905009582466" lon="10.763551012502056"><ele>377.57142857142856</ele><time>2026-03-26T16:17:07.998Z</time></trkpt><trkpt lat="43.269114313707256" lon="10.763559548159204"><ele>380.42857142857144</ele><time>2026-03-26T16:17:14.998Z</time></trkpt><trkpt lat="43.26918670235418" lon="10.76356943900497"><ele>383.2857142857143</ele><time>2026-03-26T16:17:21Z</time></trkpt><trkpt lat="43.269255190913086" lon="10.763590817680367"><ele>386.14285714285717</ele><time>2026-03-26T16:17:30Z</time></trkpt><trkpt lat="43.26931943062253" lon="10.763577688360822"><ele>389.0</ele><time>2026-03-26T16:17:37Z</time></trkpt><trkpt lat="43.2693884143692" lon="10.763570724445822"><ele>390.2857142857143</ele><time>2026-03-26T16:17:46Z</time></trkpt><trkpt lat="43.269453071119344" lon="10.763529602499323"><ele>391.57142857142856</ele><time>2026-03-26T16:17:54Z</time></trkpt><trkpt lat="43.26952093750642" lon="10.763496480879791"><ele>392.85714285714283</ele><time>2026-03-26T16:18:01.999Z</time></trkpt><trkpt lat="43.26958457570641" lon="10.76347774978316"><ele>394.1428571428571</ele><time>2026-03-26T16:18:09.999Z</time></trkpt><trkpt lat="43.26964751303394" lon="10.763427051801129"><ele>395.42857142857144</ele><time>2026-03-26T16:18:19.999Z</time></trkpt><trkpt lat="43.26969207520732" lon="10.763351291560053"><ele>396.71428571428567</ele><time>2026-03-26T16:18:27.999Z</time></trkpt><trkpt lat="43.269737410136585" lon="10.76327850015318"><ele>398.0</ele><time>2026-03-26T16:18:35.999Z</time></trkpt><trkpt lat="43.26977618924432" lon="10.763204467899055"><ele>399.4285714285714</ele><time>2026-03-26T16:18:43.999Z</time></trkpt><trkpt lat="43.26982745201268" lon="10.763146657653055"><ele>400.85714285714283</ele><time>2026-03-26T16:18:51.999Z</time></trkpt><trkpt lat="43.26985525713236" lon="10.763059069789632"><ele>402.2857142857143</ele><time>2026-03-26T16:18:59.998Z</time></trkpt><trkpt lat="43.26985332388018" lon="10.762966846689586"><ele>403.71428571428567</ele><time>2026-03-26T16:19:07.998Z</time></trkpt><trkpt lat="43.26984796750854" lon="10.76286846868272"><ele>405.14285714285717</ele><time>2026-03-26T16:19:14.998Z</time></trkpt><trkpt lat="43.269865837538546" lon="10.762770210404991"><ele>406.57142857142856</ele><time>2026-03-26T16:19:20.998Z</time></trkpt><trkpt lat="43.269874867580356" lon="10.762678472135159"><ele>408.0</ele><time>2026-03-26T16:19:26Z</time></trkpt><trkpt lat="43.269884792973116" lon="10.76257943233963"><ele>410.2857142857143</ele><time>2026-03-26T16:19:32Z</time></trkpt><trkpt lat="43.26992790579866" lon="10.762510624733"><ele>412.57142857142856</ele><time>2026-03-26T16:19:40Z</time></trkpt><trkpt lat="43.2700013038967" lon="10.76249991528346"><ele>414.8571428571429</ele><time>2026-03-26T16:19:47Z</time></trkpt><trkpt lat="43.27006517708761" lon="10.762487944393209"><ele>417.1428571428571</ele><time>2026-03-26T16:19:52Z</time></trkpt><trkpt lat="43.270129088911894" lon="10.762474150610661"><ele>419.4285714285714</ele><time>2026-03-26T16:19:57Z</time></trkpt><trkpt lat="43.27019085560275" lon="10.76249382979536"><ele>421.7142857142857</ele><time>2026-03-26T16:20:03Z</time></trkpt><trkpt lat="43.27025189715481" lon="10.762524874867722"><ele>424.0</ele><time>2026-03-26T16:20:09.999Z</time></trkpt><trkpt lat="43.27031744666953" lon="10.76257158110374"><ele>424.0</ele><time>2026-03-26T16:20:14.999Z</time></trkpt><trkpt lat="43.27037465390153" lon="10.762622315459994"><ele>424.0</ele><time>2026-03-26T16:20:19.999Z</time></trkpt><trkpt lat="43.27043406123816" lon="10.76266451373241"><ele>424.0</ele><time>2026-03-26T16:20:24.999Z</time></trkpt><trkpt lat="43.270497192304134" lon="10.762690059477327"><ele>424.0</ele><time>2026-03-26T16:20:29.999Z</time></trkpt><trkpt lat="43.270561763428546" lon="10.7627148978514"><ele>424.0</ele><time>2026-03-26T16:20:35.999Z</time></trkpt><trkpt lat="43.27063146297503" lon="10.762720611658178"><ele>424.0</ele><time>2026-03-26T16:20:41.999Z</time></trkpt><trkpt lat="43.270694695557786" lon="10.762740612466228"><ele>424.0</ele><time>2026-03-26T16:20:47.999Z</time></trkpt><trkpt lat="43.27075555389012" lon="10.762794495997099"><ele>422.0</ele><time>2026-03-26T16:20:53.999Z</time></trkpt><trkpt lat="43.27082074130727" lon="10.762819874636865"><ele>420.0</ele><time>2026-03-26T16:20:59.999Z</time></trkpt><trkpt lat="43.27088570304976" lon="10.762836306767845"><ele>418.0</ele><time>2026-03-26T16:21:05.998Z</time></trkpt><trkpt lat="43.27095488481516" lon="10.762860829863925"><ele>416.0</ele><time>2026-03-26T16:21:13.998Z</time></trkpt><trkpt lat="43.271019792611256" lon="10.762870971905361"><ele>414.0</ele><time>2026-03-26T16:21:20.998Z</time></trkpt><trkpt lat="43.27109101598361" lon="10.762859973708695"><ele>412.0</ele><time>2026-03-26T16:21:27.998Z</time></trkpt><trkpt lat="43.271148436417086" lon="10.762818164344521"><ele>410.0</ele><time>2026-03-26T16:21:34Z</time></trkpt><trkpt lat="43.27119696807822" lon="10.76276245162811"><ele>413.2857142857143</ele><time>2026-03-26T16:21:39Z</time></trkpt><trkpt lat="43.2712510900037" lon="10.762691634228936"><ele>416.57142857142856</ele><time>2026-03-26T16:21:44Z</time></trkpt><trkpt lat="43.27131065512966" lon="10.76263177377072"><ele>419.85714285714283</ele><time>2026-03-26T16:21:50Z</time></trkpt><trkpt lat="43.271374612942516" lon="10.762617473120327"><ele>423.1428571428571</ele><time>2026-03-26T16:21:54Z</time></trkpt><trkpt lat="43.2714332429951" lon="10.762651114945951"><ele>426.42857142857144</ele><time>2026-03-26T16:21:59Z</time></trkpt><trkpt lat="43.271499513013694" lon="10.762669016125614"><ele>429.71428571428567</ele><time>2026-03-26T16:22:05Z</time></trkpt><trkpt lat="43.27156348207645" lon="10.762679762763065"><ele>433.0</ele><time>2026-03-26T16:22:11Z</time></trkpt><trkpt lat="43.27163251911718" lon="10.762675039450983"><ele>432.99999999999994</ele><time>2026-03-26T16:22:16.999Z</time></trkpt><trkpt lat="43.27169902419448" lon="10.762660195864909"><ele>433.0</ele><time>2026-03-26T16:22:23.999Z</time></trkpt><trkpt lat="43.27177381428633" lon="10.762659016038516"><ele>433.0</ele><time>2026-03-26T16:22:29.999Z</time></trkpt><trkpt lat="43.27184512181441" lon="10.762650818964387"><ele>433.0</ele><time>2026-03-26T16:22:35.999Z</time></trkpt><trkpt lat="43.27191871439279" lon="10.76263542201462"><ele>433.0</ele><time>2026-03-26T16:22:42.999Z</time></trkpt><trkpt lat="43.27198403536691" lon="10.762590327360543"><ele>432.99999999999994</ele><time>2026-03-26T16:22:50.999Z</time></trkpt><trkpt lat="43.27196755723107" lon="10.762500962104117"><ele>433.0</ele><time>2026-03-26T16:23:00.999Z</time></trkpt><trkpt lat="43.27192806825737" lon="10.762430224315125"><ele>432.99999999999994</ele><time>2026-03-26T16:23:09.999Z</time></trkpt><trkpt lat="43.27189289939402" lon="10.762355076594094"><ele>433.0</ele><time>2026-03-26T16:23:21.998Z</time></trkpt><trkpt lat="43.27185828415041" lon="10.76227350316711"><ele>433.0</ele><time>2026-03-26T16:23:31.998Z</time></trkpt><trkpt lat="43.271825579039586" lon="10.762198588138256"><ele>433.0</ele><time>2026-03-26T16:23:42Z</time></trkpt><trkpt lat="43.27177688521338" lon="10.762139642788528"><ele>433.0</ele><time>2026-03-26T16:23:51Z</time></trkpt><trkpt lat="43.27172488882087" lon="10.762082522560222"><ele>432.99999999999994</ele><time>2026-03-26T16:24:02Z</time></trkpt><trkpt lat="43.27167408323344" lon="10.76203008718625"><ele>433.0</ele><time>2026-03-26T16:24:09Z</time></trkpt><trkpt lat="43.27162030129564" lon="10.76198339901085"><ele>432.99999999999994</ele><time>2026-03-26T16:24:16Z</time></trkpt><trkpt lat="43.271561491673246" lon="10.7619505776561"><ele>433.0</ele><time>2026-03-26T16:24:22.999Z</time></trkpt><trkpt lat="43.27149342078978" lon="10.761914702777796"><ele>433.0</ele><time>2026-03-26T16:24:30.999Z</time></trkpt><trkpt lat="43.27143746315637" lon="10.761871425388847"><ele>433.0</ele><time>2026-03-26T16:24:37.999Z</time></trkpt><trkpt lat="43.27137036354309" lon="10.76183964593303"><ele>433.0</ele><time>2026-03-26T16:24:44.999Z</time></trkpt><trkpt lat="43.271304502772814" lon="10.76180786893535"><ele>432.99999999999994</ele><time>2026-03-26T16:24:50.999Z</time></trkpt><trkpt lat="43.271230703224575" lon="10.761787565525303"><ele>433.0</ele><time>2026-03-26T16:24:57.999Z</time></trkpt><trkpt lat="43.271168463756624" lon="10.761764768917967"><ele>461.0</ele><time>2026-03-26T16:25:04.999Z</time></trkpt><trkpt lat="43.27109780484431" lon="10.76173834456285"><ele>461.0</ele><time>2026-03-26T16:25:12.999Z</time></trkpt><trkpt lat="43.27103089350415" lon="10.761712320940777"><ele>461.0</ele><time>2026-03-26T16:25:19.998Z</time></trkpt><trkpt lat="43.270960722698845" lon="10.761680654144689"><ele>461.0</ele><time>2026-03-26T16:25:26.998Z</time></trkpt><trkpt lat="43.27090673917876" lon="10.761628110279881"><ele>461.0</ele><time>2026-03-26T16:25:33.998Z</time></trkpt></trkseg></trk></gpx>